Hauptseite
METAR-TAF:

METAR-TAF

Flughäfen :

Harbin, China

Breite: 45-45N, Länge: 126-46E, Höhe: 143 m

Beobachtung

Neuester Wetterbericht von vor 1 Stunde und 5 Minuten, um 00:00 UTC
Wind 14 kt aus Süd
Temperatur 10°C
Luftfeuchtigkeit 29%
Luftdruck 1006 hPa
Sichtweite 10 km oder mehr
keine Wolken unter 1500 m und keine Kumulonimbus oder Gewitterwolken

METAR: ZYHB 200000Z 17007MPS CAVOK 10/M07 Q1006 NOSIG

Zeit: 09:05 (01:05 UTC)

Prognose

Neuester Wetterbericht von vor 5 Stunden und 59 Minuten, um 19:06 UTC
Gültige Prognose vom 20 um 00 UTC bis 20 um 24 UTC
Wind 16 kt aus Südwest, Böen bis zu 31 kt
Sichtweite: 6000 m
Aufgelockert bewölkt in der Höhe von 3000 ft
Übergehend zu
vom 20 um 05 UTC bis 20 um 07 UTC
Wind 12 kt aus Nordwest, Böen bis zu 27 kt

TAF: ZYHB 191906Z 2000/2024 23008G16MPS 6000 SCT030 TX15/2006Z TNM01/21Z BECMG 2005/2007 32006G14MPS

Wetterbeobachtungen und Prognosen von mehr als 4000 Flughäfen (METAR und TAF Bericht).

Die verfügbaren Stationen werden durch gelbe und rote Markierungen auf der Karte dargestellt.

Führen Sie die Maus auf sie, um den Namen der Station zu sehen.

Darauf klicken, um die Beobachtung von Wetterbeobachtungen und Prognosen zu sehen.

Um die Karte zu ändern : klicken Sie auf den grünen Tasten mit einem schwarzen Kreuz Zum Vergrößern, auf den grünen Button mit einem Gedankenstrich zu verkleinern, oder auf die grünen Pfeile für benachbarte Karten.


METAR-TAF: